Time;durP1;ratioP1;P1;durP2;ratioP2;P2;SDS_P1;SDS_P2;PMS_P1;PMS_P2;Temp;Humidity;BMP_temperature;BMP_pressure;BME280_temperature;BME280_humidity;BME280_pressure;Samples;Min_cycle;Max_cycle;Signal;HPM_P1;HPM_P2
2021/10/21 00:01:58;;;;;;;;;;;16.30;98.30;;;;;;5101750;28;19969;-76
2021/10/21 00:04:24;;;;;;;;;;;16.30;98.20;;;;;;5095394;28;19927;-75
2021/10/21 00:06:49;;;;;;;;;;;16.30;98.20;;;;;;5097699;28;19959;-75
2021/10/21 00:09:15;;;;;;;;;;;16.30;98.20;;;;;;5100848;28;20370;-75
2021/10/21 00:11:40;;;;;;;;;;;16.30;98.10;;;;;;5099327;28;20314;-75
2021/10/21 00:14:06;;;;;;;;;;;16.40;98.10;;;;;;5099058;28;19916;-74
2021/10/21 00:16:31;;;;;;;;;;;16.40;98.00;;;;;;5097868;28;20036;-75
2021/10/21 00:19:00;;;;;;;;;;;16.40;98.00;;;;;;5100179;28;20433;-75
2021/10/21 00:21:25;;;;;;;;;;;16.40;97.90;;;;;;5095900;28;19919;-75
2021/10/21 00:23:54;;;;;;;;;;;16.40;97.90;;;;;;5098606;28;20336;-74
2021/10/21 00:26:19;;;;;;;;;;;16.40;97.90;;;;;;5089097;28;19916;-74
2021/10/21 00:28:44;;;;;;;;;;;16.40;97.80;;;;;;5099569;28;20623;-74
2021/10/21 00:31:10;;;;;;;;;;;16.40;97.80;;;;;;5100712;28;19919;-74
2021/10/21 00:33:35;;;;;;;;;;;16.50;97.80;;;;;;5079938;28;19912;-74
2021/10/21 00:36:01;;;;;;;;;;;16.50;97.80;;;;;;5099004;28;19912;-74
2021/10/21 00:38:26;;;;;;;;;;;16.50;97.70;;;;;;5096250;28;20011;-75
2021/10/21 00:40:52;;;;;;;;;;;16.50;97.70;;;;;;5097931;28;19922;-74
2021/10/21 00:43:17;;;;;;;;;;;16.50;97.70;;;;;;5098518;28;20278;-75
2021/10/21 00:45:43;;;;;;;;;;;16.50;97.60;;;;;;5100368;28;19920;-75
2021/10/21 00:48:09;;;;;;;;;;;16.50;97.60;;;;;;5096447;28;20574;-76
2021/10/21 00:50:35;;;;;;;;;;;16.50;97.50;;;;;;5098085;28;19919;-75
2021/10/21 00:53:01;;;;;;;;;;;16.50;97.50;;;;;;5097482;28;20339;-75
2021/10/21 00:55:27;;;;;;;;;;;16.50;97.40;;;;;;5100834;28;19907;-75
2021/10/21 00:57:53;;;;;;;;;;;16.50;97.40;;;;;;5097957;28;19916;-75
2021/10/21 01:00:18;;;;;;;;;;;16.50;97.40;;;;;;5098988;28;20358;-75
2021/10/21 01:02:44;;;;;;;;;;;16.50;97.40;;;;;;5097537;28;19969;-75
2021/10/21 01:05:09;;;;;;;;;;;16.50;97.40;;;;;;5099609;28;19912;-75
2021/10/21 01:07:42;;;;;;;;;;;16.50;97.40;;;;;;5099189;28;19922;-75
2021/10/21 01:10:08;;;;;;;;;;;16.50;97.40;;;;;;5099544;28;19951;-75
2021/10/21 01:12:35;;;;;;;;;;;16.50;97.50;;;;;;5097130;28;20354;-75
2021/10/21 01:15:27;;;;;;;;;;;16.50;97.40;;;;;;5095897;28;20284;-75
2021/10/21 01:17:53;;;;;;;;;;;16.50;97.40;;;;;;5067451;28;19931;-75
2021/10/21 01:20:19;;;;;;;;;;;16.50;97.40;;;;;;5099484;28;20313;-75
2021/10/21 01:22:46;;;;;;;;;;;16.40;97.30;;;;;;5082473;28;20004;-76
2021/10/21 01:25:12;;;;;;;;;;;16.50;97.30;;;;;;5097409;28;19969;-76
2021/10/21 01:27:38;;;;;;;;;;;16.50;97.30;;;;;;5099154;28;19916;-75
2021/10/21 01:30:04;;;;;;;;;;;16.50;97.30;;;;;;5093782;28;19979;-75
2021/10/21 01:32:34;;;;;;;;;;;16.50;97.30;;;;;;5096655;28;20737;-75
2021/10/21 01:35:00;;;;;;;;;;;16.40;97.30;;;;;;5098557;28;19915;-75
2021/10/21 01:37:25;;;;;;;;;;;16.40;97.30;;;;;;5099586;28;20409;-75
2021/10/21 01:39:51;;;;;;;;;;;16.40;97.30;;;;;;5097779;28;19916;-75
2021/10/21 01:42:16;;;;;;;;;;;16.40;97.30;;;;;;5096183;28;19916;-75
2021/10/21 01:44:42;;;;;;;;;;;16.40;97.40;;;;;;5096905;28;20421;-75
2021/10/21 01:47:07;;;;;;;;;;;16.30;97.40;;;;;;5098162;28;19939;-76
2021/10/21 01:49:33;;;;;;;;;;;16.30;97.40;;;;;;5095715;28;19921;-76
2021/10/21 01:51:58;;;;;;;;;;;16.40;97.40;;;;;;5100167;28;20000;-76
2021/10/21 01:54:23;;;;;;;;;;;16.40;97.40;;;;;;5095255;28;19963;-75
2021/10/21 01:56:49;;;;;;;;;;;16.30;97.40;;;;;;5097584;28;20030;-75
2021/10/21 01:59:14;;;;;;;;;;;16.30;97.50;;;;;;5099229;28;19951;-76
2021/10/21 02:01:40;;;;;;;;;;;16.30;97.50;;;;;;5096843;28;19919;-75
2021/10/21 02:04:05;;;;;;;;;;;16.30;97.60;;;;;;5094016;28;19999;-75
2021/10/21 02:06:31;;;;;;;;;;;16.30;97.60;;;;;;5097625;28;19957;-75
2021/10/21 02:08:56;;;;;;;;;;;16.30;97.50;;;;;;5099087;28;19923;-75
2021/10/21 02:11:22;;;;;;;;;;;16.20;97.50;;;;;;5098393;28;19969;-75
2021/10/21 02:13:48;;;;;;;;;;;16.20;97.60;;;;;;5095901;28;19916;-75
2021/10/21 02:16:14;;;;;;;;;;;16.30;97.60;;;;;;5097161;28;19912;-75
2021/10/21 02:18:39;;;;;;;;;;;16.30;97.50;;;;;;5096668;28;20419;-75
2021/10/21 02:21:05;;;;;;;;;;;16.30;97.50;;;;;;5096004;28;19912;-75
2021/10/21 02:23:30;;;;;;;;;;;16.40;97.50;;;;;;5098788;28;20424;-75
2021/10/21 02:25:56;;;;;;;;;;;16.40;97.40;;;;;;5103055;28;19978;-75
2021/10/21 02:28:21;;;;;;;;;;;16.40;97.30;;;;;;5102299;28;19966;-75
2021/10/21 02:30:47;;;;;;;;;;;16.50;97.30;;;;;;5103356;28;20616;-75
2021/10/21 02:33:13;;;;;;;;;;;16.50;97.20;;;;;;5100056;28;19916;-75
2021/10/21 02:35:39;;;;;;;;;;;16.50;97.40;;;;;;5099564;28;19920;-75
2021/10/21 02:38:04;;;;;;;;;;;16.50;97.50;;;;;;5098072;28;19916;-75
2021/10/21 02:40:30;;;;;;;;;;;16.50;97.60;;;;;;5101692;28;19919;-75
2021/10/21 02:42:55;;;;;;;;;;;16.50;97.70;;;;;;5084061;28;19927;-76
2021/10/21 02:45:21;;;;;;;;;;;16.40;98.00;;;;;;5083342;28;19912;-76
2021/10/21 02:47:48;;;;;;;;;;;16.40;98.20;;;;;;5100891;28;19923;-75
2021/10/21 02:50:13;;;;;;;;;;;16.30;98.30;;;;;;5100286;28;19922;-75
2021/10/21 02:52:39;;;;;;;;;;;16.20;98.50;;;;;;5100076;28;19922;-75
2021/10/21 02:55:04;;;;;;;;;;;16.10;98.70;;;;;;5097796;28;19919;-75
2021/10/21 02:57:30;;;;;;;;;;;16.00;98.70;;;;;;5102886;28;19912;-74
2021/10/21 02:59:55;;;;;;;;;;;16.00;98.80;;;;;;5100131;28;19912;-74
2021/10/21 03:02:21;;;;;;;;;;;15.90;98.90;;;;;;5100560;28;20266;-74
2021/10/21 03:04:46;;;;;;;;;;;15.90;99.20;;;;;;5097362;28;19912;-74
2021/10/21 03:07:12;;;;;;;;;;;15.80;99.30;;;;;;5102678;28;19919;-74
2021/10/21 03:09:37;;;;;;;;;;;15.70;99.30;;;;;;5099013;28;19920;-74
2021/10/21 03:12:03;;;;;;;;;;;15.60;99.20;;;;;;5102393;28;20300;-74
2021/10/21 03:14:28;;;;;;;;;;;15.50;99.20;;;;;;5101778;28;19916;-74
2021/10/21 03:16:54;;;;;;;;;;;15.50;99.40;;;;;;5098809;28;19923;-74
2021/10/21 03:19:19;;;;;;;;;;;15.40;99.60;;;;;;5102578;28;20327;-74
2021/10/21 03:21:45;;;;;;;;;;;15.30;99.60;;;;;;5101317;28;19916;-74
2021/10/21 03:24:10;;;;;;;;;;;15.20;99.50;;;;;;5101344;28;19920;-74
2021/10/21 03:26:35;;;;;;;;;;;15.20;99.60;;;;;;5097626;28;19912;-74
2021/10/21 03:29:01;;;;;;;;;;;15.20;99.60;;;;;;5100878;28;20366;-74
2021/10/21 03:31:29;;;;;;;;;;;15.20;99.60;;;;;;5099110;28;19978;-74
2021/10/21 03:33:55;;;;;;;;;;;15.20;99.60;;;;;;5099543;28;19919;-74
2021/10/21 03:36:21;;;;;;;;;;;15.20;99.40;;;;;;5100293;28;19912;-74
2021/10/21 03:38:46;;;;;;;;;;;15.20;99.40;;;;;;5099276;28;19923;-75
2021/10/21 03:41:12;;;;;;;;;;;15.20;99.30;;;;;;5099955;28;19911;-75
2021/10/21 03:43:37;;;;;;;;;;;15.20;99.20;;;;;;5097127;28;19964;-75
2021/10/21 03:46:02;;;;;;;;;;;15.20;99.10;;;;;;5100698;28;19912;-75
2021/10/21 03:48:28;;;;;;;;;;;15.20;99.00;;;;;;5082826;28;20737;-75
2021/10/21 03:50:53;;;;;;;;;;;15.20;99.00;;;;;;5084041;28;20282;-75
2021/10/21 03:53:19;;;;;;;;;;;15.20;98.90;;;;;;5099959;28;20411;-75
2021/10/21 03:55:44;;;;;;;;;;;15.20;98.70;;;;;;5081391;28;19920;-74
2021/10/21 03:58:10;;;;;;;;;;;15.30;98.50;;;;;;5099410;28;19912;-74
2021/10/21 04:00:36;;;;;;;;;;;15.30;98.10;;;;;;5096942;28;21687;-74
2021/10/21 04:03:01;;;;;;;;;;;15.40;98.10;;;;;;5097517;28;20479;-75
2021/10/21 04:05:27;;;;;;;;;;;15.40;98.00;;;;;;5080566;28;19965;-75
2021/10/21 04:07:52;;;;;;;;;;;15.40;97.90;;;;;;5100293;28;19916;-75
2021/10/21 04:10:18;;;;;;;;;;;15.40;97.90;;;;;;5098867;28;20059;-75
2021/10/21 04:12:43;;;;;;;;;;;15.40;97.60;;;;;;5098146;28;20031;-75
2021/10/21 04:15:09;;;;;;;;;;;15.40;97.70;;;;;;5094832;28;19927;-74
2021/10/21 04:17:35;;;;;;;;;;;15.40;97.40;;;;;;5101126;28;20430;-75
2021/10/21 04:20:00;;;;;;;;;;;15.40;97.30;;;;;;5095431;28;19916;-74
2021/10/21 04:22:26;;;;;;;;;;;15.40;97.20;;;;;;5101350;28;19954;-74
2021/10/21 04:24:51;;;;;;;;;;;15.40;96.90;;;;;;5097168;28;20073;-76
2021/10/21 04:27:17;;;;;;;;;;;15.40;96.60;;;;;;5081054;28;19955;-76
2021/10/21 04:29:42;;;;;;;;;;;15.40;96.60;;;;;;5095077;28;19920;-77
2021/10/21 04:32:08;;;;;;;;;;;15.40;96.50;;;;;;5094473;28;19912;-75
2021/10/21 04:34:33;;;;;;;;;;;15.40;96.50;;;;;;5092600;28;20794;-75
2021/10/21 04:37:00;;;;;;;;;;;15.40;96.10;;;;;;5095734;28;19919;-75
2021/10/21 04:39:25;;;;;;;;;;;15.40;95.70;;;;;;5080261;28;20685;-76
2021/10/21 04:41:51;;;;;;;;;;;15.40;94.90;;;;;;5097504;28;19916;-72
2021/10/21 04:44:16;;;;;;;;;;;15.30;94.70;;;;;;5094211;28;19916;-75
2021/10/21 04:46:42;;;;;;;;;;;15.30;94.10;;;;;;5093645;28;19919;-72
2021/10/21 04:49:07;;;;;;;;;;;15.30;93.40;;;;;;5096595;28;19919;-74
2021/10/21 04:51:32;;;;;;;;;;;15.30;92.60;;;;;;5096913;28;20278;-74
2021/10/21 04:53:58;;;;;;;;;;;15.30;92.10;;;;;;5096617;28;20377;-74
2021/10/21 04:56:24;;;;;;;;;;;15.20;91.50;;;;;;5097127;28;20435;-74
2021/10/21 04:58:49;;;;;;;;;;;15.20;91.00;;;;;;5096923;28;20450;-73
2021/10/21 05:01:14;;;;;;;;;;;15.20;90.20;;;;;;5078019;28;20394;-74
2021/10/21 05:03:40;;;;;;;;;;;15.10;89.70;;;;;;5096757;28;19927;-73
2021/10/21 05:06:05;;;;;;;;;;;15.10;89.90;;;;;;5096647;28;19937;-74
2021/10/21 05:08:31;;;;;;;;;;;15.00;88.70;;;;;;5097801;28;19951;-73
2021/10/21 05:10:56;;;;;;;;;;;15.00;88.20;;;;;;5079005;28;19969;-74
2021/10/21 05:13:21;;;;;;;;;;;14.90;88.90;;;;;;5095774;28;19915;-74
2021/10/21 05:15:47;;;;;;;;;;;14.90;89.20;;;;;;5097952;28;19915;-73
2021/10/21 05:18:12;;;;;;;;;;;14.80;88.30;;;;;;5077030;28;19916;-76
2021/10/21 05:20:38;;;;;;;;;;;14.80;88.00;;;;;;5097932;28;20033;-75
2021/10/21 05:23:04;;;;;;;;;;;14.70;88.60;;;;;;5096710;28;19920;-76
2021/10/21 05:25:30;;;;;;;;;;;14.70;88.70;;;;;;5093829;22;19936;-73
2021/10/21 05:27:55;;;;;;;;;;;14.60;88.60;;;;;;5048936;28;19913;-73
2021/10/21 05:30:22;;;;;;;;;;;14.60;89.10;;;;;;5049189;28;19917;-72
2021/10/21 05:32:47;;;;;;;;;;;14.60;88.80;;;;;;5029377;28;19960;-74
2021/10/21 05:35:13;;;;;;;;;;;14.50;89.10;;;;;;5047158;28;19990;-72
2021/10/21 05:37:38;;;;;;;;;;;14.50;89.20;;;;;;5049006;28;20347;-73
2021/10/21 05:40:05;;;;;;;;;;;14.50;89.60;;;;;;5049199;28;19919;-73
2021/10/21 05:42:30;;;;;;;;;;;14.50;89.50;;;;;;5049234;28;19991;-72
2021/10/21 05:44:55;;;;;;;;;;;14.50;89.00;;;;;;5047910;28;20138;-72
2021/10/21 05:47:21;;;;;;;;;;;14.50;89.00;;;;;;5048881;28;19999;-73
2021/10/21 05:49:46;;;;;;;;;;;14.50;89.50;;;;;;5046359;28;20274;-73
2021/10/21 05:52:12;;;;;;;;;;;14.50;89.40;;;;;;5043126;28;19948;-73
2021/10/21 05:54:37;;;;;;;;;;;14.50;89.60;;;;;;5047731;28;20574;-74
2021/10/21 05:57:04;;;;;;;;;;;14.60;89.80;;;;;;5030859;28;19944;-73
2021/10/21 05:59:29;;;;;;;;;;;14.60;89.90;;;;;;5049195;28;19961;-75
2021/10/21 06:01:54;;;;;;;;;;;14.60;90.00;;;;;;5046075;28;19996;-74
2021/10/21 06:04:20;;;;;;;;;;;14.60;90.30;;;;;;5046561;28;20011;-74
2021/10/21 06:06:45;;;;;;;;;;;14.60;90.60;;;;;;5045498;28;20390;-74
2021/10/21 06:09:11;;;;;;;;;;;14.60;90.90;;;;;;5043834;28;20319;-73
2021/10/21 06:11:37;;;;;;;;;;;14.60;91.20;;;;;;5048885;28;20436;-73
2021/10/21 06:14:06;;;;;;;;;;;14.60;91.50;;;;;;5047253;28;20267;-73
2021/10/21 06:16:33;;;;;;;;;;;14.60;91.30;;;;;;5030433;28;19916;-73
2021/10/21 06:18:58;;;;;;;;;;;14.60;91.20;;;;;;5047631;28;19917;-72
2021/10/21 06:21:25;;;;;;;;;;;14.60;91.20;;;;;;5039624;28;19951;-73
2021/10/21 06:23:51;;;;;;;;;;;14.60;91.40;;;;;;5048082;28;19913;-73
2021/10/21 06:26:17;;;;;;;;;;;14.50;91.80;;;;;;5045790;28;19921;-72
2021/10/21 06:28:43;;;;;;;;;;;14.50;92.20;;;;;;5047380;28;19963;-72
2021/10/21 06:31:11;;;;;;;;;;;14.40;92.20;;;;;;5047962;28;19924;-73
2021/10/21 06:33:37;;;;;;;;;;;14.40;92.30;;;;;;5045274;28;19917;-73
2021/10/21 06:36:02;;;;;;;;;;;14.30;92.00;;;;;;5045732;28;19965;-75
2021/10/21 06:38:28;;;;;;;;;;;14.30;91.70;;;;;;5044750;28;20006;-75
2021/10/21 06:40:53;;;;;;;;;;;14.30;92.10;;;;;;5046694;28;20286;-76
2021/10/21 06:43:19;;;;;;;;;;;14.30;92.40;;;;;;5047473;28;19913;-76
2021/10/21 06:45:44;;;;;;;;;;;14.20;92.70;;;;;;5052386;28;19926;-76
2021/10/21 06:48:10;;;;;;;;;;;14.10;93.30;;;;;;5053594;28;19919;-75
2021/10/21 06:50:35;;;;;;;;;;;14.00;93.50;;;;;;5052437;28;19952;-76
2021/10/21 06:53:00;;;;;;;;;;;14.00;93.50;;;;;;5045914;28;19952;-76
2021/10/21 06:55:26;;;;;;;;;;;13.90;93.50;;;;;;5047999;28;20028;-75
2021/10/21 06:57:53;;;;;;;;;;;13.90;93.60;;;;;;5046003;28;19999;-76
2021/10/21 07:00:19;;;;;;;;;;;13.80;93.70;;;;;;5045779;28;19917;-76
2021/10/21 07:02:44;;;;;;;;;;;13.80;93.80;;;;;;5044684;28;19928;-77
2021/10/21 07:05:12;;;;;;;;;;;13.80;94.00;;;;;;5048846;28;19909;-77
2021/10/21 07:07:37;;;;;;;;;;;13.80;93.40;;;;;;5029330;28;19917;-77
2021/10/21 07:10:05;;;;;;;;;;;13.80;93.60;;;;;;5051304;28;19920;-77
2021/10/21 07:12:31;;;;;;;;;;;13.80;93.40;;;;;;5050656;28;19916;-78
2021/10/21 07:14:57;;;;;;;;;;;13.90;93.50;;;;;;5030755;28;19959;-78
2021/10/21 07:17:22;;;;;;;;;;;13.90;93.50;;;;;;5049154;28;20351;-79
2021/10/21 07:19:49;;;;;;;;;;;13.90;93.90;;;;;;5032448;28;20016;-79
2021/10/21 07:22:14;;;;;;;;;;;13.90;93.80;;;;;;5051725;28;20264;-80
2021/10/21 07:24:40;;;;;;;;;;;13.80;93.90;;;;;;5049019;28;19974;-78
2021/10/21 07:27:05;;;;;;;;;;;13.80;93.90;;;;;;5051772;28;19992;-77
2021/10/21 07:29:31;;;;;;;;;;;13.80;93.90;;;;;;5034694;28;19917;-78
2021/10/21 07:31:56;;;;;;;;;;;13.80;93.60;;;;;;5048271;28;20351;-74
2021/10/21 07:34:22;;;;;;;;;;;13.90;93.70;;;;;;5051379;28;19917;-76
2021/10/21 07:36:47;;;;;;;;;;;13.90;93.60;;;;;;5049698;28;19966;-79
2021/10/21 07:39:13;;;;;;;;;;;13.90;93.60;;;;;;5050399;28;19916;-79
2021/10/21 07:41:38;;;;;;;;;;;13.90;93.60;;;;;;5050868;28;19917;-79
2021/10/21 07:44:04;;;;;;;;;;;13.90;93.40;;;;;;5048360;28;19920;-80
2021/10/21 07:46:30;;;;;;;;;;;14.00;93.50;;;;;;5050784;28;19940;-80
2021/10/21 07:48:56;;;;;;;;;;;14.00;93.50;;;;;;5049717;28;19964;-80
2021/10/21 07:51:21;;;;;;;;;;;14.00;93.50;;;;;;5049203;28;20437;-80
2021/10/21 07:53:47;;;;;;;;;;;14.00;93.40;;;;;;5044870;28;19916;-80
2021/10/21 07:56:12;;;;;;;;;;;14.00;93.60;;;;;;5039237;28;19912;-79
2021/10/21 07:58:38;;;;;;;;;;;14.00;93.50;;;;;;5049837;28;19913;-78
2021/10/21 08:01:03;;;;;;;;;;;14.00;93.40;;;;;;5048111;28;19920;-78
2021/10/21 08:03:29;;;;;;;;;;;14.10;93.30;;;;;;5044427;28;20326;-80
2021/10/21 08:05:56;;;;;;;;;;;14.10;93.60;;;;;;5049776;28;20290;-81
2021/10/21 08:08:21;;;;;;;;;;;14.10;94.00;;;;;;5049116;28;19967;-80
2021/10/21 08:10:47;;;;;;;;;;;14.00;94.30;;;;;;5050828;28;19917;-79
2021/10/21 08:13:14;;;;;;;;;;;14.00;93.80;;;;;;5047995;28;19917;-81
2021/10/21 08:15:40;;;;;;;;;;;14.00;93.70;;;;;;5050287;28;20434;-81
2021/10/21 08:18:09;;;;;;;;;;;14.00;93.70;;;;;;5049452;28;19909;-81
2021/10/21 08:20:35;;;;;;;;;;;14.00;93.60;;;;;;5047860;28;19921;-79
2021/10/21 08:23:00;;;;;;;;;;;14.10;93.60;;;;;;5049892;28;19928;-77
2021/10/21 08:25:26;;;;;;;;;;;14.10;93.60;;;;;;5051114;28;20284;-75
2021/10/21 08:27:52;;;;;;;;;;;14.10;93.40;;;;;;5051852;28;19990;-81
2021/10/21 08:30:22;;;;;;;;;;;14.20;93.40;;;;;;5052307;28;19924;-80
2021/10/21 08:32:47;;;;;;;;;;;14.20;93.20;;;;;;5046962;28;19917;-79
2021/10/21 08:35:15;;;;;;;;;;;14.20;93.20;;;;;;5048407;28;19995;-78
2021/10/21 08:37:41;;;;;;;;;;;14.20;93.40;;;;;;5047742;28;20298;-80
2021/10/21 08:40:07;;;;;;;;;;;14.20;93.50;;;;;;5050657;28;19913;-78
2021/10/21 08:42:32;;;;;;;;;;;14.20;93.70;;;;;;5048235;28;19925;-78
2021/10/21 08:44:57;;;;;;;;;;;14.20;93.80;;;;;;5047976;28;19994;-80
2021/10/21 08:47:23;;;;;;;;;;;14.10;94.30;;;;;;5031162;28;20485;-80
2021/10/21 08:49:49;;;;;;;;;;;14.10;94.70;;;;;;5051674;28;20005;-80
2021/10/21 08:52:15;;;;;;;;;;;14.00;95.40;;;;;;5049069;28;19916;-79
2021/10/21 08:54:41;;;;;;;;;;;13.90;95.80;;;;;;5029112;28;19920;-81
2021/10/21 08:57:10;;;;;;;;;;;13.50;97.10;;;;;;5050193;28;19913;-77
2021/10/21 08:59:36;;;;;;;;;;;12.60;97.50;;;;;;5050268;28;19917;-77
2021/10/21 09:02:11;;;;;;;;;;;12.10;98.50;;;;;;5047490;28;20064;-77
2021/10/21 09:04:53;;;;;;;;;;;11.70;98.80;;;;;;5031245;28;20035;-77
2021/10/21 09:10:11;;;;;;;;;;;11.30;99.70;;;;;;5050310;28;20055;-77
2021/10/21 09:12:40;;;;;;;;;;;11.10;99.90;;;;;;5030141;28;19913;-77
2021/10/21 09:15:12;;;;;;;;;;;11.00;99.90;;;;;;5048674;28;19913;-79
2021/10/21 09:17:38;;;;;;;;;;;11.00;99.90;;;;;;5046744;28;19913;-78
2021/10/21 09:20:22;;;;;;;;;;;11.00;99.90;;;;;;5050085;28;19920;-78
2021/10/21 09:22:55;;;;;;;;;;;10.90;99.90;;;;;;5045443;28;19920;-78
2021/10/21 09:25:22;;;;;;;;;;;11.00;99.90;;;;;;5047712;28;19917;-78
2021/10/21 09:27:48;;;;;;;;;;;11.00;99.90;;;;;;5049771;28;19916;-77
2021/10/21 09:30:19;;;;;;;;;;;11.00;99.90;;;;;;5048202;28;19921;-77
2021/10/21 09:32:45;;;;;;;;;;;11.00;99.90;;;;;;5053333;28;19964;-80
2021/10/21 09:35:10;;;;;;;;;;;11.00;99.90;;;;;;5054231;28;19916;-80
2021/10/21 09:37:44;;;;;;;;;;;11.00;99.90;;;;;;5057082;28;19913;-81
2021/10/21 09:40:14;;;;;;;;;;;11.00;99.90;;;;;;5049581;28;20051;-78
2021/10/21 09:42:41;;;;;;;;;;;11.00;99.90;;;;;;5048770;28;20015;-76
2021/10/21 09:45:12;;;;;;;;;;;11.00;99.90;;;;;;5050077;28;20578;-77
2021/10/21 09:47:38;;;;;;;;;;;11.00;99.90;;;;;;5049074;28;19913;-77
2021/10/21 09:50:22;;;;;;;;;;;11.00;99.90;;;;;;5032025;28;19916;-76
2021/10/21 09:53:00;;;;;;;;;;;11.00;99.90;;;;;;5044620;28;20012;-77
2021/10/21 09:55:25;;;;;;;;;;;11.00;99.90;;;;;;5041626;28;19920;-76
2021/10/21 09:57:51;;;;;;;;;;;10.90;99.90;;;;;;5048443;28;19913;-77
2021/10/21 10:00:19;;;;;;;;;;;10.90;99.90;;;;;;5049597;28;19915;-77
2021/10/21 10:02:44;;;;;;;;;;;10.90;99.90;;;;;;5045064;28;19916;-79
2021/10/21 10:05:14;;;;;;;;;;;10.90;99.90;;;;;;5052281;28;19913;-77
2021/10/21 10:07:40;;;;;;;;;;;10.90;99.90;;;;;;5047157;28;19924;-77
2021/10/21 10:10:06;;;;;;;;;;;10.90;99.90;;;;;;5047429;28;19925;-77
2021/10/21 10:12:35;;;;;;;;;;;10.90;99.90;;;;;;5044384;28;19928;-76
2021/10/21 10:15:00;;;;;;;;;;;11.00;99.90;;;;;;5029119;28;19978;-76
2021/10/21 10:17:29;;;;;;;;;;;11.10;99.90;;;;;;5048295;28;19913;-77
2021/10/21 10:19:55;;;;;;;;;;;11.10;99.90;;;;;;5049147;28;19920;-77
2021/10/21 10:22:24;;;;;;;;;;;11.10;99.90;;;;;;5048117;28;19955;-77
2021/10/21 10:24:50;;;;;;;;;;;11.20;99.90;;;;;;5045850;28;20050;-77
2021/10/21 10:27:20;;;;;;;;;;;11.20;99.90;;;;;;5047138;28;20343;-76
2021/10/21 10:29:46;;;;;;;;;;;11.30;99.90;;;;;;5047628;28;19924;-76
2021/10/21 10:32:27;;;;;;;;;;;11.30;99.90;;;;;;5028825;28;20346;-77
2021/10/21 10:34:53;;;;;;;;;;;11.40;99.90;;;;;;5046706;28;19917;-76
2021/10/21 10:37:19;;;;;;;;;;;11.40;99.90;;;;;;5049274;28;19915;-76
2021/10/21 10:39:58;;;;;;;;;;;11.40;99.90;;;;;;5049043;28;20369;-77
2021/10/21 10:42:30;;;;;;;;;;;11.40;99.90;;;;;;5029444;28;20018;-78
2021/10/21 10:44:56;;;;;;;;;;;11.40;99.90;;;;;;5049260;28;19912;-77
2021/10/21 10:47:40;;;;;;;;;;;11.30;99.90;;;;;;5056852;28;20360;-79
2021/10/21 10:50:07;;;;;;;;;;;11.20;99.90;;;;;;5043530;28;20387;-80
2021/10/21 10:52:59;;;;;;;;;;;11.10;99.90;;;;;;5050271;28;19919;-79
2021/10/21 10:55:46;;;;;;;;;;;11.00;99.90;;;;;;5048507;28;20402;-81
2021/10/21 10:58:16;;;;;;;;;;;11.00;99.90;;;;;;5052273;28;19963;-81
2021/10/21 11:00:50;;;;;;;;;;;11.00;99.90;;;;;;5042725;28;19909;-80
2021/10/21 11:03:31;;;;;;;;;;;11.00;99.90;;;;;;5049340;28;20299;-77
2021/10/21 11:06:06;;;;;;;;;;;11.20;99.90;;;;;;5034903;28;20287;-79
2021/10/21 11:08:47;;;;;;;;;;;11.30;99.90;;;;;;5049944;28;19999;-78
2021/10/21 11:11:32;;;;;;;;;;;11.40;99.90;;;;;;5049321;28;19927;-78
2021/10/21 11:14:05;;;;;;;;;;;11.60;99.90;;;;;;5030213;28;19963;-79
2021/10/21 11:16:37;;;;;;;;;;;11.70;99.60;;;;;;5051416;28;20286;-78
2021/10/21 11:19:03;;;;;;;;;;;11.70;99.70;;;;;;5051103;28;20303;-78
2021/10/21 11:21:45;;;;;;;;;;;11.70;99.60;;;;;;5034697;28;19913;-79
2021/10/21 11:24:11;;;;;;;;;;;11.80;99.70;;;;;;5049519;28;19923;-78
2021/10/21 11:26:37;;;;;;;;;;;11.90;99.40;;;;;;5100705;22;19924;-71
2021/10/21 11:29:03;;;;;;;;;;;11.90;99.30;;;;;;5091876;28;19912;-71
2021/10/21 11:31:29;;;;;;;;;;;11.90;99.10;;;;;;5091601;28;19994;-71
2021/10/21 11:33:55;;;;;;;;;;;11.90;99.00;;;;;;5091435;28;19912;-70
2021/10/21 11:36:20;;;;;;;;;;;12.00;98.60;;;;;;5091583;28;19923;-74
2021/10/21 11:39:02;;;;;;;;;;;12.10;98.50;;;;;;5091196;28;20002;-73
2021/10/21 11:41:28;;;;;;;;;;;12.20;97.90;;;;;;5090238;28;19916;-73
2021/10/21 11:43:53;;;;;;;;;;;12.30;97.90;;;;;;5091029;28;20332;-71
2021/10/21 11:46:20;;;;;;;;;;;12.30;97.80;;;;;;5093816;28;19919;-72
2021/10/21 11:48:46;;;;;;;;;;;12.30;97.60;;;;;;5079819;28;20341;-72
2021/10/21 11:51:13;;;;;;;;;;;12.30;97.50;;;;;;5094624;28;19944;-71
2021/10/21 11:53:39;;;;;;;;;;;12.40;97.30;;;;;;5089975;28;19955;-70
2021/10/21 11:56:05;;;;;;;;;;;12.40;96.40;;;;;;5092714;28;20366;-71
2021/10/21 11:58:34;;;;;;;;;;;12.40;96.20;;;;;;5090591;28;20005;-70
2021/10/21 12:00:59;;;;;;;;;;;12.40;95.90;;;;;;5090387;28;19961;-73
2021/10/21 12:03:28;;;;;;;;;;;12.40;96.10;;;;;;5090060;28;19916;-77
2021/10/21 12:05:54;;;;;;;;;;;12.40;95.70;;;;;;5097223;28;19908;-79
2021/10/21 12:08:21;;;;;;;;;;;12.30;96.00;;;;;;5087638;28;19959;-80
2021/10/21 12:10:47;;;;;;;;;;;12.30;95.90;;;;;;5091045;28;19928;-78
2021/10/21 12:13:28;;;;;;;;;;;12.30;95.90;;;;;;5089700;28;19913;-77
2021/10/21 12:15:55;;;;;;;;;;;12.30;95.70;;;;;;5092418;28;19948;-78
2021/10/21 12:18:22;;;;;;;;;;;12.30;95.60;;;;;;5087429;28;19920;-80
2021/10/21 12:20:51;;;;;;;;;;;12.40;95.30;;;;;;5094355;28;20263;-80
2021/10/21 12:23:28;;;;;;;;;;;12.50;95.20;;;;;;5088002;28;19957;-82
2021/10/21 12:25:56;;;;;;;;;;;12.50;94.70;;;;;;5091270;28;19960;-82
2021/10/21 12:28:37;;;;;;;;;;;12.50;94.70;;;;;;5089708;28;21284;-82
2021/10/21 12:31:20;;;;;;;;;;;12.60;94.50;;;;;;5089845;28;20316;-82
2021/10/21 12:33:58;;;;;;;;;;;12.60;94.10;;;;;;5089643;28;19912;-81
2021/10/21 12:36:24;;;;;;;;;;;12.60;94.00;;;;;;5088064;28;19916;-82
2021/10/21 12:38:52;;;;;;;;;;;12.60;94.00;;;;;;5091821;28;20011;-76
2021/10/21 12:41:19;;;;;;;;;;;12.60;93.90;;;;;;5089530;28;20370;-80
2021/10/21 12:43:58;;;;;;;;;;;12.70;93.90;;;;;;5092215;28;20382;-80
2021/10/21 12:46:24;;;;;;;;;;;12.60;95.10;;;;;;5092251;28;20317;-80
2021/10/21 12:49:06;;;;;;;;;;;12.50;96.00;;;;;;5090108;28;19912;-76
2021/10/21 12:51:32;;;;;;;;;;;12.30;96.70;;;;;;5089573;28;19999;-76
2021/10/21 12:53:57;;;;;;;;;;;12.10;97.20;;;;;;5089156;28;20034;-75
2021/10/21 12:56:25;;;;;;;;;;;12.00;97.70;;;;;;5071873;28;19919;-76
2021/10/21 12:59:03;;;;;;;;;;;12.00;97.80;;;;;;5091973;28;20003;-80
2021/10/21 13:01:48;;;;;;;;;;;11.90;97.90;;;;;;5088766;28;20173;-73
2021/10/21 13:04:33;;;;;;;;;;;11.90;97.90;;;;;;5088628;28;19946;-73
2021/10/21 13:06:59;;;;;;;;;;;11.80;97.80;;;;;;5088543;28;19964;-72
2021/10/21 13:09:24;;;;;;;;;;;11.80;97.80;;;;;;5087319;28;19919;-71
2021/10/21 13:11:49;;;;;;;;;;;11.80;97.80;;;;;;5069927;28;20236;-71
2021/10/21 13:14:15;;;;;;;;;;;11.80;97.70;;;;;;5086293;28;19931;-72
2021/10/21 13:16:41;;;;;;;;;;;11.70;97.50;;;;;;5088476;28;19988;-71
2021/10/21 13:19:09;;;;;;;;;;;11.70;97.70;;;;;;5088873;28;19922;-72
2021/10/21 13:21:35;;;;;;;;;;;11.60;97.50;;;;;;5068406;28;19916;-71
2021/10/21 13:24:00;;;;;;;;;;;11.60;97.50;;;;;;5086694;28;19932;-71
2021/10/21 13:26:27;;;;;;;;;;;11.60;97.60;;;;;;5089510;28;20332;-71
2021/10/21 13:28:53;;;;;;;;;;;11.60;97.80;;;;;;5088831;28;19912;-72
2021/10/21 13:31:19;;;;;;;;;;;11.50;97.90;;;;;;5069454;28;19923;-72
2021/10/21 13:33:44;;;;;;;;;;;11.50;98.00;;;;;;5088182;28;19973;-71
2021/10/21 13:36:09;;;;;;;;;;;11.50;98.30;;;;;;5089059;28;19969;-72
2021/10/21 13:38:35;;;;;;;;;;;11.50;98.50;;;;;;5089205;28;20313;-71
2021/10/21 13:41:00;;;;;;;;;;;11.50;98.50;;;;;;5086871;28;19912;-71
2021/10/21 13:43:26;;;;;;;;;;;11.50;98.50;;;;;;5068419;28;19920;-71
2021/10/21 13:45:53;;;;;;;;;;;11.60;98.40;;;;;;5088833;28;19912;-72
2021/10/21 13:48:18;;;;;;;;;;;11.60;98.20;;;;;;5088948;28;19951;-72
2021/10/21 13:50:48;;;;;;;;;;;11.60;98.30;;;;;;5089475;28;20385;-72
2021/10/21 13:53:13;;;;;;;;;;;11.50;98.10;;;;;;5085989;28;19912;-72
2021/10/21 13:55:40;;;;;;;;;;;11.60;97.90;;;;;;5089127;28;20006;-72
2021/10/21 13:58:06;;;;;;;;;;;11.60;97.90;;;;;;5089223;28;19912;-73
2021/10/21 14:00:31;;;;;;;;;;;11.60;97.50;;;;;;5088908;28;20392;-73
2021/10/21 14:02:57;;;;;;;;;;;11.60;97.40;;;;;;5086005;28;19922;-73
2021/10/21 14:05:23;;;;;;;;;;;11.70;97.20;;;;;;5088864;28;19968;-72
2021/10/21 14:07:48;;;;;;;;;;;11.70;97.00;;;;;;5088173;28;20362;-73
2021/10/21 14:10:14;;;;;;;;;;;11.70;97.00;;;;;;5089639;28;20328;-72
2021/10/21 14:12:39;;;;;;;;;;;11.70;97.00;;;;;;5085716;28;19927;-71
2021/10/21 14:15:05;;;;;;;;;;;11.70;96.70;;;;;;5089335;28;19944;-72
2021/10/21 14:17:30;;;;;;;;;;;11.70;96.50;;;;;;5087779;28;19912;-72
2021/10/21 14:19:56;;;;;;;;;;;11.70;96.60;;;;;;5087756;28;19927;-74